createdAt,value
2023-04-10T00:01:20.756Z,100892.22
2023-04-10T00:03:48.640Z,100893.72
2023-04-10T00:06:16.906Z,100891.69
2023-04-10T00:08:44.304Z,100895.53
2023-04-10T00:11:14.534Z,100896.91
2023-04-10T00:13:42.856Z,100895.41
2023-04-10T00:16:11.294Z,100888.00
2023-04-10T00:18:38.933Z,100888.31
2023-04-10T00:21:07.294Z,100888.84
2023-04-10T00:23:37.401Z,100888.59
2023-04-10T00:26:05.392Z,100884.75
2023-04-10T00:28:32.934Z,100888.72
2023-04-10T00:31:00.475Z,100880.66
2023-04-10T00:33:27.787Z,100889.00
2023-04-10T00:35:55.934Z,100895.56
2023-04-10T00:38:23.647Z,100898.72
2023-04-10T00:40:51.885Z,100903.75
2023-04-10T00:43:20.634Z,100907.03
2023-04-10T00:45:50.796Z,100905.81
2023-04-10T00:48:19.392Z,100899.66
2023-04-10T00:50:47.200Z,100897.72
2023-04-10T00:53:16.132Z,100895.66
2023-04-10T00:55:44.531Z,100897.31
2023-04-10T00:58:14.808Z,100903.34
2023-04-10T01:00:42.413Z,100898.84
2023-04-10T01:03:12.081Z,100893.50
2023-04-10T01:05:44.546Z,100898.41
2023-04-10T01:08:18.835Z,100897.47
2023-04-10T01:10:46.834Z,100888.97
2023-04-10T01:13:23.505Z,100888.00
2023-04-10T01:16:00.307Z,100889.25
2023-04-10T01:18:36.828Z,100891.16
2023-04-10T01:21:08.446Z,100893.75
2023-04-10T01:23:51.991Z,100890.47
2023-04-10T01:26:48.057Z,100882.03
2023-04-10T01:29:20.888Z,100886.53
2023-04-10T01:31:58.709Z,100888.47
2023-04-10T01:34:30.552Z,100896.38
2023-04-10T01:37:02.669Z,100891.16
2023-04-10T01:39:30.968Z,100885.19
2023-04-10T01:42:01.364Z,100887.63
2023-04-10T01:44:41.151Z,100894.44
2023-04-10T01:47:09.126Z,100891.75
2023-04-10T01:49:42.935Z,100894.34
2023-04-10T01:52:11.993Z,100900.31
2023-04-10T01:54:40.870Z,100897.03
2023-04-10T01:57:08.594Z,100894.44
2023-04-10T01:59:52.173Z,100895.56
2023-04-10T02:02:19.934Z,100895.81
2023-04-10T02:04:51.975Z,100891.84
2023-04-10T02:07:19.567Z,100891.47
2023-04-10T02:09:47.382Z,100893.38
2023-04-10T02:12:27.159Z,100894.44
2023-04-10T02:15:00.153Z,100885.19
2023-04-10T02:17:32.848Z,100884.50
2023-04-10T02:20:00.966Z,100888.72
2023-04-10T02:22:29.000Z,100894.59
2023-04-10T02:24:57.571Z,100902.38
2023-04-10T02:27:33.654Z,100883.81
2023-04-10T02:30:02.624Z,100899.66
2023-04-10T02:32:34.205Z,100894.88
2023-04-10T02:35:04.641Z,100890.91
2023-04-10T02:37:33.665Z,100897.19
2023-04-10T02:40:04.145Z,100890.34
2023-04-10T02:42:41.329Z,100899.66
2023-04-10T02:45:11.691Z,100893.63
2023-04-10T02:47:43.035Z,100892.66
2023-04-10T02:50:12.343Z,100888.31
2023-04-10T02:52:43.464Z,100888.31
2023-04-10T02:55:11.740Z,100889.81
2023-04-10T02:57:42.897Z,100873.13
2023-04-10T03:00:11.174Z,100879.97
2023-04-10T03:07:42.997Z,100880.91
2023-04-10T03:10:30.113Z,100879.44
2023-04-10T03:13:07.900Z,100876.84
2023-04-10T03:15:45.776Z,100878.31
2023-04-10T03:18:13.316Z,100876.69
2023-04-10T03:20:44.894Z,100875.97
2023-04-10T03:23:14.520Z,100882.25
2023-04-10T03:25:42.252Z,100885.91
2023-04-10T03:28:09.962Z,100888.50
2023-04-10T03:30:37.936Z,100883.28
2023-04-10T03:33:05.631Z,100887.59
2023-04-10T03:35:33.199Z,100890.81
2023-04-10T03:38:01.009Z,100895.56
2023-04-10T03:40:54.124Z,100893.75
2023-04-10T03:44:00.634Z,100898.63
2023-04-10T03:51:15.042Z,100889.66
2023-04-10T03:54:15.359Z,100890.63
2023-04-10T03:57:08.517Z,100890.19
2023-04-10T04:00:23.135Z,100892.50
2023-04-10T04:15:56.197Z,100881.41
2023-04-10T04:18:46.719Z,100892.66
2023-04-10T04:21:33.062Z,100885.56
2023-04-10T04:24:08.435Z,100886.97
2023-04-10T04:27:11.782Z,100889.22
2023-04-10T04:29:51.706Z,100890.63
2023-04-10T04:32:25.369Z,100885.19
2023-04-10T04:35:17.285Z,100875.97
2023-04-10T04:38:17.275Z,100877.22
2023-04-10T04:41:31.370Z,100877.59
2023-04-10T04:44:27.401Z,100878.63
2023-04-10T04:47:03.732Z,100875.25
2023-04-10T04:50:00.424Z,100871.19
2023-04-10T04:52:48.089Z,100875.63
2023-04-10T04:55:27.694Z,100874.28
2023-04-10T04:58:04.212Z,100874.78
2023-04-10T05:00:47.074Z,100876.75
2023-04-10T05:03:44.297Z,100886.88
2023-04-10T05:06:37.443Z,100878.38
2023-04-10T05:09:31.500Z,100881.44
2023-04-10T05:12:09.256Z,100881.44
2023-04-10T05:14:42.697Z,100887.47
2023-04-10T05:17:31.276Z,100885.50
2023-04-10T05:20:17.803Z,100886.97
2023-04-10T05:23:03.617Z,100888.78
2023-04-10T05:25:50.811Z,100889.78
2023-04-10T05:28:22.991Z,100891.59
2023-04-10T05:31:25.869Z,100895.50
2023-04-10T05:34:16.473Z,100900.09
2023-04-10T05:36:58.300Z,100899.94
2023-04-10T05:39:45.797Z,100896.00
2023-04-10T05:42:33.813Z,100897.66
2023-04-10T05:45:30.519Z,100896.31
2023-04-10T05:48:19.687Z,100897.59
2023-04-10T05:51:02.428Z,100899.16
2023-04-10T05:53:43.137Z,100906.28
2023-04-10T05:56:42.471Z,100896.00
2023-04-10T05:59:39.567Z,100897.19
2023-04-10T06:02:46.246Z,100890.06
2023-04-10T06:05:22.616Z,100897.75
2023-04-10T06:08:04.191Z,100901.06
2023-04-10T06:10:31.997Z,100894.66
2023-04-10T06:12:59.778Z,100898.41
2023-04-10T06:15:27.860Z,100898.44
2023-04-10T06:17:56.190Z,100896.44
2023-04-10T06:20:24.055Z,100895.34
2023-04-10T06:22:51.877Z,100900.13
2023-04-10T06:25:19.364Z,100897.38
2023-04-10T06:27:46.856Z,100903.38
2023-04-10T06:30:14.771Z,100898.66
2023-04-10T06:32:42.561Z,100895.81
2023-04-10T06:35:11.570Z,100897.56
2023-04-10T06:37:41.647Z,100898.25
2023-04-10T06:40:12.226Z,100897.34
2023-04-10T06:42:39.692Z,100910.50
2023-04-10T06:45:13.515Z,100906.53
2023-04-10T06:47:41.112Z,100906.13
2023-04-10T06:50:08.783Z,100907.28
2023-04-10T06:52:36.191Z,100906.50
2023-04-10T06:55:04.242Z,100907.69
2023-04-10T06:57:32.106Z,100917.47
2023-04-10T06:59:59.677Z,100913.22
2023-04-10T15:42:05.644Z,100763.13
2023-04-10T15:44:33.834Z,100760.00
2023-04-10T15:47:01.907Z,100758.44
2023-04-10T15:49:37.908Z,100761.56
2023-04-10T15:52:13.271Z,100753.41
2023-04-10T15:54:49.821Z,100754.75
2023-04-10T15:57:20.832Z,100754.09
2023-04-10T15:59:51.334Z,100748.16
2023-04-10T16:02:19.170Z,100755.50
2023-04-10T16:04:46.921Z,100749.91
2023-04-10T16:07:14.431Z,100747.63
2023-04-10T16:09:41.754Z,100754.13
2023-04-10T16:12:09.055Z,100747.72
2023-04-10T16:14:36.572Z,100752.56
2023-04-10T16:17:03.848Z,100749.88
2023-04-10T16:19:32.009Z,100750.59
2023-04-10T16:21:59.476Z,100747.88
2023-04-10T16:24:27.043Z,100746.66
2023-04-10T16:26:54.790Z,100743.81
2023-04-10T16:29:22.185Z,100746.16
2023-04-10T16:31:49.560Z,100744.06
2023-04-10T16:34:16.883Z,100735.16
2023-04-10T16:36:45.026Z,100746.47
2023-04-10T16:39:12.660Z,100747.66
2023-04-10T16:41:40.030Z,100742.81
2023-04-10T16:44:08.131Z,100735.91
2023-04-10T16:46:36.322Z,100744.28
2023-04-10T16:49:04.484Z,100739.00
2023-04-10T16:51:32.002Z,100737.25
2023-04-10T16:53:59.446Z,100743.00
2023-04-10T16:56:27.197Z,100741.97
2023-04-10T16:58:57.490Z,100756.22
2023-04-10T17:01:25.854Z,100751.00
2023-04-10T17:03:54.307Z,100746.63
2023-04-10T17:06:22.302Z,100741.97
2023-04-10T17:08:53.454Z,100745.78
2023-04-10T17:11:21.240Z,100740.13
2023-04-10T17:13:51.460Z,100747.66
2023-04-10T17:16:20.295Z,100741.31
2023-04-10T17:18:48.161Z,100736.94
2023-04-10T17:21:18.524Z,100740.38
2023-04-10T17:23:46.038Z,100739.53
2023-04-10T17:26:14.274Z,100741.31
2023-04-10T17:28:44.598Z,100741.75
2023-04-10T17:31:15.678Z,100744.63
2023-04-10T17:33:43.925Z,100741.50
2023-04-10T17:36:12.489Z,100746.03
2023-04-10T17:38:40.404Z,100742.50
2023-04-10T17:41:08.331Z,100741.97
2023-04-10T17:43:36.202Z,100737.03
2023-04-10T17:46:03.496Z,100731.16
2023-04-10T17:48:31.854Z,100729.81
2023-04-10T17:51:01.594Z,100731.09
2023-04-10T17:53:29.454Z,100729.44
2023-04-10T17:55:57.140Z,100728.63
2023-04-10T17:58:25.948Z,100733.69
2023-04-10T18:01:01.743Z,100725.06
2023-04-10T18:03:29.223Z,100727.00
2023-04-10T18:05:56.826Z,100731.66
2023-04-10T18:08:24.484Z,100733.72
2023-04-10T18:10:51.838Z,100728.66
2023-04-10T18:13:19.673Z,100727.31
2023-04-10T18:15:47.223Z,100726.66
2023-04-10T18:18:14.809Z,100732.25
2023-04-10T18:20:42.093Z,100735.94
2023-04-10T18:23:09.820Z,100734.47
2023-04-10T18:25:40.515Z,100729.41
2023-04-10T18:30:39.664Z,100720.13
2023-04-10T18:33:10.759Z,100723.81
2023-04-10T18:35:39.822Z,100720.56
2023-04-10T18:38:07.245Z,100719.72
2023-04-10T18:40:37.044Z,100720.28
2023-04-10T18:43:05.546Z,100716.28
2023-04-10T18:45:34.714Z,100712.31
2023-04-10T18:48:02.965Z,100712.00
2023-04-10T18:50:30.820Z,100714.19
2023-04-10T18:52:58.128Z,100711.59
2023-04-10T18:55:25.687Z,100712.69
2023-04-10T18:57:53.058Z,100710.22
2023-04-10T19:00:20.340Z,100709.56
2023-04-10T19:02:47.691Z,100705.44
2023-04-10T19:05:16.717Z,100705.75
2023-04-10T19:07:56.606Z,100701.66
2023-04-10T19:10:31.798Z,100709.75
2023-04-10T19:12:59.000Z,100707.56
2023-04-10T19:15:26.692Z,100702.13
2023-04-10T19:17:54.880Z,100697.34
2023-04-10T19:20:49.105Z,100695.16
2023-04-10T19:23:09.941Z,100693.69
2023-04-10T19:25:37.400Z,100706.00
2023-04-10T19:28:05.081Z,100700.38
2023-04-10T19:30:32.759Z,100696.84
2023-04-10T19:33:00.262Z,100701.38
2023-04-10T19:35:27.731Z,100701.22
2023-04-10T19:37:58.273Z,100704.34
2023-04-10T19:40:26.124Z,100691.91
2023-04-10T19:42:53.556Z,100694.75
2023-04-10T19:45:22.357Z,100696.78
2023-04-10T19:47:52.993Z,100695.25
2023-04-10T19:50:20.373Z,100697.13
2023-04-10T19:52:47.949Z,100694.91
2023-04-10T19:55:17.010Z,100691.22
2023-04-10T19:57:47.104Z,100694.66
2023-04-10T20:00:14.653Z,100690.41
2023-04-10T20:02:42.320Z,100683.56
2023-04-10T20:05:10.034Z,100687.94
2023-04-10T20:07:37.542Z,100690.69
2023-04-10T20:10:05.289Z,100700.56
2023-04-10T20:12:33.284Z,100691.09
2023-04-10T20:15:01.510Z,100693.59
2023-04-10T20:17:30.381Z,100696.72
2023-04-10T20:19:57.759Z,100698.75
2023-04-10T20:22:25.532Z,100690.34
2023-04-10T20:24:53.134Z,100688.00
2023-04-10T20:27:20.439Z,100696.31
2023-04-10T20:29:47.844Z,100690.03
2023-04-10T20:32:15.722Z,100688.22
2023-04-10T20:34:43.074Z,100689.34
2023-04-10T20:37:10.584Z,100685.09
2023-04-10T20:39:38.383Z,100686.91
2023-04-10T20:42:06.354Z,100685.09
2023-04-10T20:44:36.122Z,100684.31
2023-04-10T20:47:04.650Z,100684.16
2023-04-10T20:49:32.278Z,100682.38
2023-04-10T20:52:00.242Z,100682.38
2023-04-10T20:54:28.085Z,100683.84
2023-04-10T20:56:57.028Z,100686.44
2023-04-10T20:59:24.389Z,100689.19
2023-04-10T21:01:51.935Z,100690.19
2023-04-10T21:04:20.235Z,100685.94
2023-04-10T21:06:47.790Z,100690.97
2023-04-10T21:09:15.337Z,100691.81
2023-04-10T21:11:42.786Z,100692.47
2023-04-10T21:14:10.616Z,100702.56
2023-04-10T21:16:41.374Z,100697.25
2023-04-10T21:19:09.454Z,100690.09
2023-04-10T21:21:36.847Z,100688.06
2023-04-10T21:24:04.643Z,100682.53
2023-04-10T21:26:32.158Z,100688.28
2023-04-10T21:28:59.568Z,100681.97
2023-04-10T21:31:27.042Z,100682.63
2023-04-10T21:33:57.532Z,100680.72
2023-04-10T21:36:25.067Z,100677.13
2023-04-10T21:38:52.852Z,100674.53
2023-04-10T21:41:21.164Z,100672.75
2023-04-10T21:43:48.333Z,100666.72
2023-04-10T21:46:16.186Z,100673.06
2023-04-10T21:48:43.645Z,100663.91
2023-04-10T21:51:11.248Z,100666.94
2023-04-10T21:53:38.449Z,100668.88
2023-04-10T21:56:06.037Z,100669.19
2023-04-10T21:58:33.816Z,100668.78
2023-04-10T22:01:01.468Z,100664.84
2023-04-10T22:03:29.089Z,100667.88
2023-04-10T22:05:56.494Z,100675.00
2023-04-10T22:08:24.009Z,100665.72
2023-04-10T22:10:52.393Z,100670.13
2023-04-10T22:13:30.219Z,100675.84
2023-04-10T22:16:00.343Z,100678.28
2023-04-10T22:18:28.048Z,100685.94
2023-04-10T22:20:55.822Z,100673.09
2023-04-10T22:23:23.925Z,100672.25
2023-04-10T22:25:51.181Z,100671.31
2023-04-10T22:28:18.380Z,100667.72
2023-04-10T22:30:46.163Z,100663.22
2023-04-10T22:33:13.574Z,100658.84
2023-04-10T22:35:42.609Z,100662.22
2023-04-10T22:38:10.036Z,100662.22
2023-04-10T22:40:37.469Z,100661.44
2023-04-10T22:43:04.860Z,100657.19
2023-04-10T22:45:32.065Z,100663.50
2023-04-10T22:47:59.406Z,100660.25
2023-04-10T22:50:26.888Z,100658.91
2023-04-10T22:52:54.084Z,100662.91
2023-04-10T22:55:21.494Z,100657.16
2023-04-10T22:57:50.771Z,100660.03
2023-04-10T23:00:22.691Z,100654.84
2023-04-10T23:02:50.571Z,100648.97
2023-04-10T23:05:17.999Z,100656.75
2023-04-10T23:07:45.479Z,100644.75
2023-04-10T23:10:12.680Z,100644.75
2023-04-10T23:12:40.334Z,100644.44
2023-04-10T23:15:07.816Z,100651.00
2023-04-10T23:17:35.212Z,100648.91
2023-04-10T23:20:02.573Z,100641.66
2023-04-10T23:22:30.641Z,100644.66
2023-04-10T23:24:58.080Z,100646.13
2023-04-10T23:27:25.511Z,100642.56
2023-04-10T23:29:53.323Z,100652.81
2023-04-10T23:32:20.691Z,100651.56
2023-04-10T23:34:48.106Z,100648.97
2023-04-10T23:37:15.412Z,100640.50
2023-04-10T23:39:42.951Z,100644.03
2023-04-10T23:42:10.418Z,100648.72
2023-04-10T23:44:37.827Z,100647.25
2023-04-10T23:47:06.576Z,100650.94
2023-04-10T23:49:35.398Z,100652.88
2023-04-10T23:52:02.673Z,100639.34
2023-04-10T23:54:29.914Z,100649.06
2023-04-10T23:56:57.804Z,100649.22
2023-04-10T23:59:25.228Z,100646.78
